Time;durP1;ratioP1;P1;durP2;ratioP2;P2;SDS_P1;SDS_P2;PMS_P1;PMS_P2;Temp;Humidity;BMP_temperature;BMP_pressure;BME280_temperature;BME280_humidity;BME280_pressure;Samples;Min_cycle;Max_cycle;Signal;HPM_P1;HPM_P2
2023/07/10 00:01:04;;;;;;;10.05;7.13;;;21.70;99.90;;;;;;4964237;28;20023;-80
2023/07/10 00:03:34;;;;;;;10.52;7.10;;;21.60;99.90;;;;;;4962903;28;20349;-80
2023/07/10 00:06:00;;;;;;;13.65;7.75;;;21.60;99.90;;;;;;4963158;28;20038;-80
2023/07/10 00:08:26;;;;;;;10.95;7.82;;;21.50;99.90;;;;;;4955595;28;20027;-80
2023/07/10 00:10:52;;;;;;;13.00;7.93;;;21.50;99.90;;;;;;4961795;28;20871;-80
2023/07/10 00:13:21;;;;;;;13.18;7.45;;;21.50;99.90;;;;;;4961531;28;20116;-80
2023/07/10 00:15:52;;;;;;;17.85;8.77;;;21.50;99.90;;;;;;4959153;28;20023;-81
2023/07/10 00:18:20;;;;;;;14.88;8.27;;;21.50;99.90;;;;;;4961367;28;20097;-80
2023/07/10 00:20:47;;;;;;;16.08;8.23;;;21.40;99.90;;;;;;4961105;28;20116;-81
2023/07/10 00:23:13;;;;;;;13.27;7.93;;;21.40;99.90;;;;;;4962196;28;20035;-80
2023/07/10 00:25:39;;;;;;;17.50;8.43;;;21.40;99.90;;;;;;4962386;28;20422;-80
2023/07/10 00:28:18;;;;;;;14.25;8.15;;;21.40;99.90;;;;;;4978053;28;20026;-80
2023/07/10 00:30:47;;;;;;;19.92;8.98;;;21.40;99.90;;;;;;4960013;28;20015;-80
2023/07/10 00:33:15;;;;;;;21.15;9.00;;;21.30;99.90;;;;;;4963142;28;20030;-80
2023/07/10 00:35:41;;;;;;;17.60;9.10;;;21.30;99.90;;;;;;4960784;28;20648;-80
2023/07/10 00:38:20;;;;;;;18.15;9.77;;;21.20;99.90;;;;;;4959467;28;20071;-81
2023/07/10 00:40:46;;;;;;;18.60;9.40;;;21.10;99.90;;;;;;4958380;28;20027;-80
2023/07/10 00:43:53;;;;;;;24.98;11.50;;;21.10;99.90;;;;;;4963302;28;20139;-81
2023/07/10 00:46:33;;;;;;;21.20;10.63;;;21.20;99.90;;;;;;4934876;28;20043;-80
2023/07/10 00:49:04;;;;;;;15.52;10.27;;;21.20;99.90;;;;;;4962193;28;20042;-80
2023/07/10 00:51:38;;;;;;;20.67;10.80;;;21.20;99.90;;;;;;4961586;28;20074;-81
2023/07/10 00:54:04;;;;;;;16.20;11.18;;;21.20;99.90;;;;;;4959317;28;20027;-81
2023/07/10 00:56:38;;;;;;;18.40;12.23;;;21.30;99.90;;;;;;4958414;28;20476;-80
2023/07/10 00:59:20;;;;;;;19.20;11.63;;;21.40;99.90;;;;;;4962337;28;20039;-80
2023/07/10 01:02:08;;;;;;;20.17;11.83;;;21.40;99.90;;;;;;4962300;28;20539;-80
2023/07/10 01:04:39;;;;;;;19.88;12.10;;;21.30;99.90;;;;;;4961561;28;20486;-81
2023/07/10 01:07:14;;;;;;;27.27;11.98;;;21.40;99.90;;;;;;4965100;28;20041;-81
2023/07/10 01:09:53;;;;;;;23.60;12.50;;;21.40;99.90;;;;;;4967611;28;20018;-82
2023/07/10 01:12:20;;;;;;;21.15;13.73;;;21.40;99.90;;;;;;4964400;28;20062;-81
2023/07/10 01:14:46;;;;;;;21.73;13.73;;;21.50;99.90;;;;;;4964791;28;20041;-80
2023/07/10 01:17:12;;;;;;;24.88;13.25;;;21.60;99.90;;;;;;4959671;28;20027;-81
2023/07/10 01:19:41;;;;;;;21.77;14.25;;;21.60;99.90;;;;;;4960598;28;20022;-81
2023/07/10 01:22:10;;;;;;;26.67;15.15;;;21.60;99.90;;;;;;4982760;28;20031;-82
2023/07/10 01:24:36;;;;;;;24.30;15.95;;;21.50;99.90;;;;;;4968814;28;20438;-80
2023/07/10 01:27:04;;;;;;;34.45;16.20;;;21.50;99.90;;;;;;4963643;28;20015;-81
2023/07/10 01:30:03;;;;;;;26.27;16.23;;;21.40;99.90;;;;;;4960182;28;20062;-80
2023/07/10 01:32:30;;;;;;;31.00;16.65;;;21.40;99.90;;;;;;4952848;28;20439;-81
2023/07/10 01:35:02;;;;;;;29.92;17.17;;;21.30;99.90;;;;;;4958667;28;20023;-81
2023/07/10 01:37:28;;;;;;;23.73;16.70;;;21.40;99.90;;;;;;4959401;28;20031;-81
2023/07/10 01:39:54;;;;;;;30.52;17.05;;;21.40;99.90;;;;;;4960744;28;20379;-81
2023/07/10 01:42:21;;;;;;;23.65;15.80;;;21.40;99.90;;;;;;4959325;28;20030;-81
2023/07/10 01:44:49;;;;;;;30.20;16.33;;;21.40;99.90;;;;;;4961077;28;20082;-80
2023/07/10 01:47:15;;;;;;;29.65;16.02;;;21.40;99.90;;;;;;4960541;28;20022;-81
2023/07/10 01:49:59;;;;;;;34.45;15.93;;;21.40;99.90;;;;;;4960394;28;20026;-81
2023/07/10 01:52:25;;;;;;;27.65;16.35;;;21.40;99.90;;;;;;4960994;28;20037;-81
2023/07/10 01:54:51;;;;;;;28.90;16.30;;;21.40;99.90;;;;;;4959303;28;20022;-81
2023/07/10 01:57:23;;;;;;;29.23;16.35;;;21.50;99.90;;;;;;4959342;28;20121;-80
2023/07/10 01:59:51;;;;;;;32.17;16.52;;;21.50;99.90;;;;;;4962064;28;20035;-80
2023/07/10 02:02:17;;;;;;;25.92;15.80;;;21.50;99.90;;;;;;4960512;28;20405;-81
2023/07/10 02:04:43;;;;;;;25.48;15.88;;;21.40;99.90;;;;;;4959934;28;20030;-81
2023/07/10 02:07:10;;;;;;;27.13;16.20;;;21.30;99.90;;;;;;4958763;28;20273;-81
2023/07/10 02:09:36;;;;;;;29.00;16.70;;;21.30;99.90;;;;;;4961532;28;20423;-81
2023/07/10 02:12:02;;;;;;;28.10;16.23;;;21.40;99.90;;;;;;4959867;28;20039;-81
2023/07/10 02:14:29;;;;;;;27.17;15.88;;;21.40;99.90;;;;;;4961398;28;20027;-80
2023/07/10 02:16:54;;;;;;;31.80;16.92;;;21.50;99.90;;;;;;4959745;28;20015;-81
2023/07/10 02:19:20;;;;;;;36.70;16.90;;;21.50;99.90;;;;;;4960755;28;20073;-80
2023/07/10 02:21:47;;;;;;;25.63;15.98;;;21.50;99.90;;;;;;4960440;28;20051;-80
2023/07/10 02:24:12;;;;;;;25.60;17.65;;;21.50;99.90;;;;;;4961189;28;20062;-80
2023/07/10 02:26:38;;;;;;;28.15;15.65;;;21.50;99.90;;;;;;4959285;28;20042;-80
2023/07/10 02:29:04;;;;;;;24.23;15.43;;;21.50;99.90;;;;;;4961396;28;20027;-80
2023/07/10 02:31:29;;;;;;;28.05;15.40;;;21.40;99.90;;;;;;4955600;28;20446;-81
2023/07/10 02:33:57;;;;;;;21.75;14.00;;;21.40;99.90;;;;;;4961724;28;20022;-81
2023/07/10 02:36:26;;;;;;;23.05;15.43;;;21.40;99.90;;;;;;4959315;28;20022;-81
2023/07/10 02:38:51;;;;;;;27.00;15.65;;;21.40;99.90;;;;;;4959801;28;20069;-81
2023/07/10 02:41:17;;;;;;;27.02;14.48;;;21.40;99.90;;;;;;4959141;28;20034;-81
2023/07/10 02:43:42;;;;;;;24.73;14.60;;;21.40;99.90;;;;;;4959018;28;20506;-81
2023/07/10 02:46:08;;;;;;;24.10;13.98;;;21.40;99.90;;;;;;4959568;28;20503;-81
2023/07/10 02:48:34;;;;;;;27.88;15.10;;;21.40;99.90;;;;;;4959936;28;20101;-82
2023/07/10 02:51:00;;;;;;;26.50;13.80;;;21.30;99.90;;;;;;4956220;28;20023;-82
2023/07/10 02:53:26;;;;;;;24.80;13.65;;;21.40;99.90;;;;;;4958076;28;20118;-82
2023/07/10 02:55:52;;;;;;;24.00;14.75;;;21.40;99.90;;;;;;4960891;28;20114;-82
2023/07/10 02:58:18;;;;;;;24.40;13.90;;;21.40;99.90;;;;;;4955863;28;20030;-82
2023/07/10 03:00:43;;;;;;;23.67;14.50;;;21.40;99.90;;;;;;4958519;28;20033;-82
2023/07/10 03:03:09;;;;;;;23.85;15.02;;;21.40;99.90;;;;;;4960575;28;20126;-82
2023/07/10 03:05:35;;;;;;;23.55;14.20;;;21.40;99.90;;;;;;4955591;28;20842;-81
2023/07/10 03:08:00;;;;;;;23.45;13.90;;;21.40;99.90;;;;;;4960754;28;20420;-82
2023/07/10 03:10:26;;;;;;;20.55;13.07;;;21.40;99.90;;;;;;4959600;28;20023;-82
2023/07/10 03:12:52;;;;;;;24.88;14.27;;;21.40;99.90;;;;;;4960130;28;20110;-81
2023/07/10 03:15:17;;;;;;;21.63;14.30;;;21.50;99.90;;;;;;4961678;28;20467;-82
2023/07/10 03:17:43;;;;;;;30.08;15.63;;;21.50;99.90;;;;;;4959115;28;20023;-82
2023/07/10 03:20:10;;;;;;;22.45;15.18;;;21.40;99.90;;;;;;4973433;28;20569;-81
2023/07/10 03:22:35;;;;;;;26.67;14.43;;;21.40;99.90;;;;;;4983403;28;20070;-82
2023/07/10 03:25:01;;;;;;;23.65;14.82;;;21.40;99.90;;;;;;4969919;28;20026;-82
2023/07/10 03:27:27;;;;;;;33.58;15.13;;;21.40;99.90;;;;;;4970418;28;20019;-81
2023/07/10 03:29:53;;;;;;;26.67;14.82;;;21.40;99.90;;;;;;4963604;28;20034;-80
2023/07/10 03:32:18;;;;;;;21.48;14.38;;;21.40;99.90;;;;;;4964001;28;20248;-81
2023/07/10 03:34:47;;;;;;;23.23;14.95;;;21.40;99.90;;;;;;4963181;28;20023;-81
2023/07/10 03:37:14;;;;;;;22.75;14.77;;;21.40;99.90;;;;;;4962433;28;20027;-81
2023/07/10 03:39:40;;;;;;;30.17;14.52;;;21.40;99.90;;;;;;4962958;28;20445;-81
2023/07/10 03:42:06;;;;;;;24.00;15.13;;;21.40;99.90;;;;;;4960446;28;20027;-82
2023/07/10 03:44:31;;;;;;;23.55;14.57;;;21.40;99.90;;;;;;4964002;28;20027;-81
2023/07/10 03:46:57;;;;;;;29.02;14.50;;;21.40;99.90;;;;;;4964573;28;20098;-82
2023/07/10 03:49:24;;;;;;;24.60;14.63;;;21.40;99.90;;;;;;4961162;28;20837;-82
2023/07/10 03:51:52;;;;;;;31.77;15.77;;;21.30;99.90;;;;;;4959677;28;20086;-82
2023/07/10 03:54:18;;;;;;;24.52;13.75;;;21.30;99.90;;;;;;4961865;28;20600;-82
2023/07/10 03:56:43;;;;;;;29.58;14.18;;;21.30;99.90;;;;;;4965127;28;20022;-82
2023/07/10 03:59:09;;;;;;;27.88;14.38;;;21.20;99.90;;;;;;4960730;28;20027;-82
2023/07/10 04:01:36;;;;;;;25.92;14.60;;;21.20;99.90;;;;;;4958581;28;20019;-82
2023/07/10 04:04:01;;;;;;;31.25;14.45;;;21.20;99.90;;;;;;4961550;28;20062;-82
2023/07/10 04:06:27;;;;;;;24.83;14.65;;;21.30;99.90;;;;;;4961802;28;20057;-82
2023/07/10 04:08:53;;;;;;;22.75;13.88;;;21.40;99.90;;;;;;4959187;28;20790;-82
2023/07/10 04:11:21;;;;;;;24.75;14.43;;;21.40;99.90;;;;;;4961726;28;20029;-83
2023/07/10 04:13:48;;;;;;;22.75;13.30;;;21.30;99.90;;;;;;4963192;28;20026;-79
2023/07/10 04:16:22;;;;;;;25.05;13.10;;;21.30;99.90;;;;;;4961674;28;20023;-81
2023/07/10 04:18:49;;;;;;;22.38;13.60;;;21.30;99.90;;;;;;4970576;28;20026;-82
2023/07/10 04:21:21;;;;;;;22.33;13.27;;;21.30;99.90;;;;;;4961115;28;20027;-82
2023/07/10 04:23:50;;;;;;;23.10;13.00;;;21.30;99.90;;;;;;4958229;28;20037;-81
2023/07/10 04:26:28;;;;;;;25.30;14.00;;;21.30;99.90;;;;;;4961990;28;20026;-82
2023/07/10 04:28:55;;;;;;;23.45;12.77;;;21.40;99.90;;;;;;4974326;28;20016;-80
2023/07/10 04:31:44;;;;;;;25.52;12.45;;;21.50;99.90;;;;;;4986478;28;20019;-81
2023/07/10 04:34:10;;;;;;;23.45;11.85;;;21.40;99.90;;;;;;4974512;28;20030;-81
2023/07/10 04:36:36;;;;;;;19.67;11.75;;;21.40;99.90;;;;;;4961586;28;20026;-82
2023/07/10 04:39:02;;;;;;;23.92;10.85;;;21.40;99.90;;;;;;4961515;28;20978;-82
2023/07/10 04:41:30;;;;;;;22.02;11.05;;;21.40;99.90;;;;;;4960228;28;20041;-81
2023/07/10 04:43:56;;;;;;;20.55;11.40;;;21.40;99.90;;;;;;4962702;28;20121;-80
2023/07/10 04:46:21;;;;;;;23.90;11.00;;;21.50;99.90;;;;;;4955870;28;20113;-79
2023/07/10 04:48:47;;;;;;;19.73;10.90;;;21.50;99.90;;;;;;4954491;28;20070;-86
2023/07/10 04:51:15;;;;;;;20.42;10.35;;;21.50;99.90;;;;;;4953370;28;20037;-83
2023/07/10 04:53:41;;;;;;;16.77;10.75;;;21.50;99.90;;;;;;4958166;28;20406;-84
2023/07/10 04:56:13;;;;;;;19.23;11.30;;;21.50;99.90;;;;;;4959277;28;20042;-83
2023/07/10 04:58:49;;;;;;;22.13;10.45;;;21.60;99.90;;;;;;4959871;28;20027;-80
2023/07/10 05:01:15;;;;;;;19.50;10.38;;;21.60;99.90;;;;;;4956225;28;20026;-85
2023/07/10 05:03:40;;;;;;;15.65;9.35;;;21.50;99.90;;;;;;4957476;28;20041;-80
2023/07/10 05:06:06;;;;;;;17.25;9.55;;;21.50;99.90;;;;;;4958654;28;20023;-81
2023/07/10 05:08:32;;;;;;;17.40;8.70;;;21.50;99.90;;;;;;4962256;28;20086;-83
2023/07/10 05:11:00;;;;;;;14.73;7.70;;;21.50;99.90;;;;;;4969000;28;20278;-85
2023/07/10 05:13:28;;;;;;;12.32;7.45;;;21.50;99.90;;;;;;4963450;28;20061;-83
2023/07/10 05:16:03;;;;;;;13.82;7.68;;;21.60;99.90;;;;;;4956268;28;20033;-82
2023/07/10 05:18:29;;;;;;;13.25;8.05;;;21.60;99.90;;;;;;4961187;28;20047;-82
2023/07/10 05:20:57;;;;;;;15.07;7.38;;;21.60;99.90;;;;;;4972371;28;20029;-84
2023/07/10 05:23:25;;;;;;;13.20;7.50;;;21.50;99.90;;;;;;4970959;28;20514;-81
2023/07/10 05:25:54;;;;;;;10.77;6.55;;;21.50;99.90;;;;;;4958147;28;20027;-86
2023/07/10 05:28:23;;;;;;;11.45;6.00;;;21.40;99.90;;;;;;4961276;28;20027;-91
2023/07/10 05:30:49;;;;;;;10.93;5.60;;;21.40;99.90;;;;;;4969160;28;20049;-82
2023/07/10 05:33:14;;;;;;;10.30;4.93;;;21.40;99.90;;;;;;4962845;28;20027;-86
2023/07/10 05:35:49;;;;;;;8.32;4.32;;;21.40;99.90;;;;;;4965672;28;20070;-88
2023/07/10 05:38:19;;;;;;;10.00;3.92;;;21.40;99.90;;;;;;4967554;28;20041;-88
2023/07/10 05:40:44;;;;;;;8.63;3.95;;;21.40;99.90;;;;;;4959172;28;20031;-86
2023/07/10 05:43:10;;;;;;;6.55;3.90;;;21.30;99.90;;;;;;4976000;28;20039;-85
2023/07/10 05:45:38;;;;;;;7.03;3.78;;;21.50;99.90;;;;;;4963398;28;20014;-88
2023/07/10 05:48:04;;;;;;;8.52;3.88;;;21.40;99.90;;;;;;4963047;28;20106;-86
2023/07/10 05:50:30;;;;;;;8.63;3.65;;;21.50;99.90;;;;;;4961315;28;20027;-87
2023/07/10 05:52:56;;;;;;;8.00;3.80;;;21.40;99.90;;;;;;4969946;28;20141;-84
2023/07/10 05:55:24;;;;;;;7.88;3.45;;;21.40;99.90;;;;;;4960306;28;20022;-83
2023/07/10 05:57:50;;;;;;;7.50;2.97;;;21.30;99.90;;;;;;4960714;28;20042;-84
2023/07/10 06:00:19;;;;;;;6.60;3.08;;;21.20;99.90;;;;;;4960794;28;20030;-85
2023/07/10 06:02:44;;;;;;;7.45;3.20;;;21.30;99.90;;;;;;4963849;28;20394;-87
2023/07/10 06:05:10;;;;;;;5.25;3.13;;;21.30;99.90;;;;;;4962571;28;20118;-88
2023/07/10 06:07:36;;;;;;;8.20;4.00;;;21.40;99.90;;;;;;4963059;28;20505;-90
2023/07/10 06:10:02;;;;;;;9.48;3.40;;;21.60;99.90;;;;;;4962346;28;20104;-89
2023/07/10 06:12:27;;;;;;;10.00;3.45;;;21.70;99.90;;;;;;4961756;28;20033;-88
2023/07/10 06:14:53;;;;;;;5.28;3.38;;;21.80;99.90;;;;;;4966827;28;20058;-82
2023/07/10 06:17:19;;;;;;;7.25;5.18;;;21.90;99.90;;;;;;4955387;28;21057;-87
2023/07/10 06:19:44;;;;;;;7.40;4.35;;;21.90;99.90;;;;;;4960779;28;20042;-87
2023/07/10 06:22:11;;;;;;;12.63;4.50;;;21.80;99.90;;;;;;4957938;28;20031;-81
2023/07/10 06:24:38;;;;;;;7.45;3.90;;;21.90;99.90;;;;;;4960230;28;20461;-86
2023/07/10 06:27:05;;;;;;;7.68;3.90;;;21.80;99.90;;;;;;4966050;28;20038;-87
2023/07/10 06:29:33;;;;;;;7.30;3.45;;;21.90;99.90;;;;;;4960240;28;20104;-85
2023/07/10 06:31:59;;;;;;;10.95;3.50;;;21.90;99.90;;;;;;4974802;28;20034;-84
2023/07/10 06:34:24;;;;;;;5.50;3.25;;;21.80;99.90;;;;;;4962019;28;20356;-85
2023/07/10 06:36:51;;;;;;;6.57;3.40;;;21.90;99.90;;;;;;4958909;28;20582;-85
2023/07/10 06:39:17;;;;;;;6.70;3.90;;;22.00;99.90;;;;;;4957605;28;20027;-82
2023/07/10 06:41:45;;;;;;;10.15;4.28;;;22.10;99.90;;;;;;4961179;28;20039;-82
2023/07/10 06:44:10;;;;;;;7.43;4.32;;;22.10;99.90;;;;;;4958622;28;20450;-81
2023/07/10 06:46:36;;;;;;;6.07;4.15;;;22.00;99.90;;;;;;4961403;28;20077;-81
2023/07/10 06:49:01;;;;;;;9.13;4.10;;;22.10;99.90;;;;;;4960701;28;20034;-82
2023/07/10 06:51:27;;;;;;;6.40;4.13;;;22.00;99.90;;;;;;4971319;28;20058;-80
2023/07/10 06:53:53;;;;;;;7.22;3.75;;;22.00;99.90;;;;;;4972229;28;20022;-80
2023/07/10 06:56:19;;;;;;;5.82;4.05;;;22.10;99.90;;;;;;4970072;28;20033;-81
2023/07/10 06:58:46;;;;;;;6.72;4.05;;;21.90;99.90;;;;;;4964995;28;20022;-81
2023/07/10 07:01:12;;;;;;;5.88;3.90;;;21.90;99.90;;;;;;4959751;28;20046;-80
2023/07/10 07:03:40;;;;;;;6.18;4.13;;;21.90;99.90;;;;;;4967695;28;20042;-80
2023/07/10 07:06:07;;;;;;;7.60;4.20;;;21.90;99.90;;;;;;4958707;28;20730;-80
2023/07/10 07:08:34;;;;;;;7.50;4.13;;;21.90;99.90;;;;;;4959832;28;20023;-85
2023/07/10 07:10:59;;;;;;;8.70;3.20;;;21.90;99.90;;;;;;4966614;28;20034;-84
2023/07/10 07:13:25;;;;;;;8.15;3.88;;;21.90;99.90;;;;;;4959228;28;20125;-81
2023/07/10 07:15:53;;;;;;;5.60;3.25;;;21.90;99.90;;;;;;4958613;28;20428;-83
2023/07/10 07:18:20;;;;;;;9.40;4.15;;;22.00;99.90;;;;;;4965747;28;20085;-82
2023/07/10 07:20:47;;;;;;;230.55;114.00;;;22.00;99.90;;;;;;4987526;28;20030;-78
2023/07/10 07:23:15;;;;;;;14.90;5.63;;;22.00;99.90;;;;;;4961214;28;20054;-88
2023/07/10 07:25:44;;;;;;;134.55;58.00;;;22.10;99.90;;;;;;4961112;28;20023;-87
2023/07/10 07:28:14;;;;;;;16.52;5.18;;;22.00;99.90;;;;;;4958739;28;20027;-86
2023/07/10 07:30:47;;;;;;;10.35;4.95;;;22.00;99.90;;;;;;4966008;28;20035;-88
2023/07/10 07:33:13;;;;;;;9.48;5.38;;;22.10;99.90;;;;;;4963384;28;20023;-86
2023/07/10 07:35:45;;;;;;;12.07;5.10;;;22.10;99.90;;;;;;4968500;28;20035;-85
2023/07/10 07:38:11;;;;;;;9.52;5.03;;;22.20;99.90;;;;;;4959584;28;20031;-88
2023/07/10 07:40:36;;;;;;;12.77;4.53;;;22.30;99.90;;;;;;4952332;28;20089;-85
2023/07/10 07:43:05;;;;;;;8.88;4.18;;;22.30;99.90;;;;;;4961843;28;20173;-86
2023/07/10 07:45:31;;;;;;;9.93;3.78;;;22.50;99.90;;;;;;4958082;28;20031;-88
2023/07/10 07:47:56;;;;;;;7.60;4.18;;;22.60;99.90;;;;;;4959504;28;20031;-87
2023/07/10 07:50:22;;;;;;;5.60;2.55;;;22.80;99.90;;;;;;4969006;28;20415;-86
2023/07/10 07:52:48;;;;;;;175.73;77.72;;;22.80;99.90;;;;;;4960303;28;20027;-80
2023/07/10 07:55:13;;;;;;;9.68;2.45;;;22.80;99.90;;;;;;4962777;28;20544;-87
2023/07/10 07:57:39;;;;;;;6.57;2.53;;;22.80;99.90;;;;;;4969442;28;20038;-79
2023/07/10 08:00:06;;;;;;;5.60;1.70;;;22.90;99.90;;;;;;4958472;28;20149;-78
2023/07/10 08:02:31;;;;;;;8.43;2.90;;;23.20;99.90;;;;;;4961119;28;20023;-79
2023/07/10 08:04:59;;;;;;;5.53;2.28;;;23.40;99.90;;;;;;4960599;28;20077;-81
2023/07/10 08:07:27;;;;;;;5.78;1.90;;;23.50;99.90;;;;;;4960472;28;20380;-79
2023/07/10 08:09:53;;;;;;;5.18;2.70;;;23.50;99.90;;;;;;4963618;28;20051;-78
2023/07/10 08:12:18;;;;;;;8.05;2.75;;;23.60;99.90;;;;;;4958236;28;20055;-79
2023/07/10 08:14:44;;;;;;;6.28;2.38;;;23.80;99.90;;;;;;4963200;28;20526;-79
2023/07/10 08:17:10;;;;;;;5.22;2.30;;;23.80;99.90;;;;;;4966286;28;20505;-80
2023/07/10 08:19:35;;;;;;;5.32;2.15;;;23.80;99.90;;;;;;4961661;28;20023;-80
2023/07/10 08:22:03;;;;;;;9.27;2.15;;;23.70;99.90;;;;;;4963646;28;20097;-84
2023/07/10 08:24:29;;;;;;;7.57;1.85;;;23.80;99.90;;;;;;4964539;28;20493;-77
2023/07/10 08:26:56;;;;;;;8.25;2.10;;;24.00;99.90;;;;;;4961668;28;20125;-75
2023/07/10 08:29:30;;;;;;;5.18;2.45;;;24.00;99.90;;;;;;4962762;28;20474;-75
2023/07/10 08:31:57;;;;;;;6.05;2.85;;;24.30;99.90;;;;;;4964782;28;20061;-75
2023/07/10 08:34:24;;;;;;;6.43;1.85;;;24.20;99.90;;;;;;4961729;28;20093;-75
2023/07/10 08:36:53;;;;;;;5.10;2.03;;;24.30;99.90;;;;;;4963090;28;20019;-75
2023/07/10 08:39:21;;;;;;;9.48;2.00;;;24.50;99.90;;;;;;4961936;28;20027;-75
2023/07/10 08:41:58;;;;;;;7.47;2.00;;;24.70;99.90;;;;;;4960413;28;20042;-75
2023/07/10 08:44:34;;;;;;;3.70;1.98;;;24.80;99.70;;;;;;4961619;28;20531;-75
2023/07/10 08:47:03;;;;;;;4.57;1.77;;;25.00;99.50;;;;;;4944432;28;20494;-76
2023/07/10 08:49:38;;;;;;;7.38;2.40;;;25.20;99.30;;;;;;4960399;28;21133;-77
2023/07/10 08:52:12;;;;;;;95.80;35.75;;;25.50;99.50;;;;;;4963435;28;20023;-77
2023/07/10 08:54:40;;;;;;;71.15;30.02;;;25.40;99.10;;;;;;4961568;28;20034;-76
2023/07/10 08:57:33;;;;;;;4.75;2.05;;;25.40;97.10;;;;;;4959884;28;20041;-77
2023/07/10 09:00:12;;;;;;;5.20;2.03;;;25.40;96.60;;;;;;4959625;28;20034;-83
2023/07/10 09:03:00;;;;;;;4.35;2.05;;;25.80;96.10;;;;;;4962732;28;20510;-80
2023/07/10 09:05:29;;;;;;;5.15;1.85;;;26.10;95.20;;;;;;4959928;28;20471;-80
2023/07/10 09:07:58;;;;;;;4.63;2.30;;;26.20;95.30;;;;;;4962339;28;20042;-80
2023/07/10 09:10:46;;;;;;;8.68;2.50;;;26.30;95.40;;;;;;4978005;28;20604;-80
2023/07/10 09:13:27;;;;;;;6.15;2.30;;;26.40;93.00;;;;;;4963443;28;20902;-80
2023/07/10 09:15:59;;;;;;;8.05;2.17;;;26.30;95.00;;;;;;4967926;28;20429;-80
2023/07/10 09:18:24;;;;;;;5.13;2.05;;;26.60;95.10;;;;;;4959910;28;20027;-80
2023/07/10 09:20:58;;;;;;;5.55;2.38;;;26.60;92.30;;;;;;4960402;28;20140;-78
2023/07/10 09:23:30;;;;;;;4.93;1.60;;;26.50;93.60;;;;;;4962113;28;20175;-78
2023/07/10 09:25:58;;;;;;;5.85;2.70;;;26.50;92.50;;;;;;4970222;28;20050;-81
2023/07/10 09:28:25;;;;;;;7.80;2.05;;;26.40;93.20;;;;;;4961277;28;20304;-80
2023/07/10 09:31:09;;;;;;;3.90;2.05;;;26.30;92.90;;;;;;4960097;28;20030;-80
2023/07/10 09:33:43;;;;;;;8.75;2.67;;;26.40;92.60;;;;;;4955457;28;20082;-80
2023/07/10 09:36:18;;;;;;;6.22;2.75;;;26.50;92.40;;;;;;4973358;28;20026;-80
2023/07/10 09:38:45;;;;;;;7.57;2.15;;;26.50;92.00;;;;;;4967814;28;20027;-81
2023/07/10 09:41:14;;;;;;;5.68;1.98;;;26.70;91.60;;;;;;4960361;28;20121;-79
2023/07/10 09:43:49;;;;;;;10.25;2.42;;;26.90;92.40;;;;;;4962414;28;20072;-81
2023/07/10 09:46:15;;;;;;;5.13;2.45;;;27.00;91.50;;;;;;4961328;28;20026;-80
2023/07/10 09:48:41;;;;;;;6.70;2.28;;;27.30;91.80;;;;;;4960154;28;20498;-79
2023/07/10 09:51:09;;;;;;;7.13;2.55;;;27.70;90.70;;;;;;4960483;28;20227;-81
2023/07/10 09:53:45;;;;;;;12.18;2.40;;;27.90;90.10;;;;;;4967402;28;20029;-80
2023/07/10 09:56:35;;;;;;;5.88;2.35;;;28.00;86.80;;;;;;4958469;28;20740;-79
2023/07/10 09:59:16;;;;;;;4.95;2.00;;;28.00;85.40;;;;;;4969130;28;20080;-90
2023/07/10 10:01:42;;;;;;;4.75;2.20;;;27.60;85.80;;;;;;4959830;28;20077;-78
2023/07/10 10:04:10;;;;;;;6.68;2.42;;;27.50;87.80;;;;;;4959083;28;20475;-78
2023/07/10 10:06:40;;;;;;;5.45;2.22;;;27.30;85.80;;;;;;4962935;28;20019;-83
2023/07/10 10:09:22;;;;;;;3.80;2.47;;;27.40;86.20;;;;;;4971470;28;20266;-81
2023/07/10 10:11:51;;;;;;;7.23;2.17;;;27.80;84.20;;;;;;4960197;28;20027;-84
2023/07/10 10:14:28;;;;;;;4.60;1.85;;;28.00;82.90;;;;;;4958512;28;20296;-80
2023/07/10 10:16:57;;;;;;;4.00;1.50;;;28.00;79.30;;;;;;4960220;28;20074;-81
2023/07/10 10:19:30;;;;;;;5.38;1.90;;;27.80;77.80;;;;;;4956769;28;20030;-80
2023/07/10 10:21:56;;;;;;;4.47;1.83;;;27.70;77.00;;;;;;4961016;28;20293;-81
2023/07/10 10:24:31;;;;;;;5.43;2.33;;;28.10;77.70;;;;;;4960065;28;20159;-81
2023/07/10 10:27:14;;;;;;;4.72;1.95;;;28.30;77.20;;;;;;4961503;28;20030;-81
2023/07/10 10:29:42;;;;;;;7.67;1.70;;;28.50;73.80;;;;;;4959787;28;20105;-78
2023/07/10 10:32:25;;;;;;;7.32;2.30;;;28.70;74.50;;;;;;4950612;28;20320;-80
2023/07/10 10:35:19;;;;;;;3.80;2.17;;;28.20;74.90;;;;;;4960722;28;20022;-80
2023/07/10 10:37:53;;;;;;;5.47;2.15;;;28.30;77.20;;;;;;4958641;28;20073;-82
2023/07/10 10:40:42;;;;;;;14.23;2.55;;;28.60;74.80;;;;;;4956134;28;20438;-83
2023/07/10 10:43:17;;;;;;;5.50;2.00;;;28.70;74.40;;;;;;4960624;28;20023;-80
2023/07/10 10:45:50;;;;;;;7.72;2.20;;;28.90;75.00;;;;;;4954832;28;20127;-83
2023/07/10 10:48:50;;;;;;;8.15;2.30;;;29.40;75.90;;;;;;4958234;28;20066;-80
2023/07/10 10:51:37;;;;;;;3.78;1.95;;;30.00;75.90;;;;;;4958689;28;20058;-81
2023/07/10 10:54:14;;;;;;;4.95;2.42;;;30.00;68.70;;;;;;4960789;28;20486;-81
2023/07/10 10:56:48;;;;;;;10.20;2.42;;;29.70;68.40;;;;;;4962970;28;20027;-80
2023/07/10 10:59:29;;;;;;;5.65;2.40;;;29.90;69.30;;;;;;4960191;28;20074;-79
2023/07/10 11:02:01;;;;;;;6.00;2.55;;;30.20;69.80;;;;;;4959642;28;20041;-80
2023/07/10 11:04:40;;;;;;;9.90;2.47;;;30.30;70.10;;;;;;4958335;28;20031;-79
2023/07/10 11:07:13;;;;;;;3.33;1.88;;;30.10;65.90;;;;;;4961532;28;20042;-79
2023/07/10 11:09:53;;;;;;;5.47;2.35;;;30.20;66.80;;;;;;4977509;28;20030;-81
2023/07/10 11:12:30;;;;;;;7.63;3.30;;;30.40;68.10;;;;;;4968080;28;20026;-81
2023/07/10 11:15:01;;;;;;;5.50;2.40;;;30.20;68.40;;;;;;4955836;28;20082;-80
2023/07/10 11:17:29;;;;;;;8.15;3.20;;;29.80;69.90;;;;;;4968498;28;20030;-79
2023/07/10 11:19:55;;;;;;;6.30;3.22;;;30.10;69.40;;;;;;4957456;28;20026;-78
2023/07/10 11:22:29;;;;;;;10.00;3.33;;;29.80;67.80;;;;;;4961117;28;20054;-80
2023/07/10 11:24:55;;;;;;;8.77;2.95;;;30.20;68.00;;;;;;4959867;28;20034;-78
2023/07/10 11:27:42;;;;;;;5.30;2.60;;;29.80;68.00;;;;;;4961493;28;20606;-79
2023/07/10 11:30:12;;;;;;;9.60;3.30;;;30.00;71.10;;;;;;4962827;28;20372;-83
2023/07/10 11:33:04;;;;;;;10.35;3.03;;;30.60;65.60;;;;;;4967771;28;20044;-82
2023/07/10 11:35:31;;;;;;;7.00;3.05;;;30.70;65.80;;;;;;4961499;28;20083;-78
2023/07/10 11:38:02;;;;;;;5.07;2.22;;;30.80;65.30;;;;;;4962722;28;20434;-78
2023/07/10 11:40:28;;;;;;;5.25;2.20;;;30.80;63.80;;;;;;4978442;28;20479;-81
2023/07/10 11:42:58;;;;;;;5.20;2.35;;;30.60;63.10;;;;;;4964924;28;20265;-79
2023/07/10 11:45:44;;;;;;;5.05;2.30;;;30.40;63.20;;;;;;4980969;28;20364;-80
2023/07/10 11:48:38;;;;;;;8.63;2.63;;;30.40;65.10;;;;;;4963477;28;20502;-83
2023/07/10 11:51:09;;;;;;;7.90;2.75;;;30.20;63.30;;;;;;4970407;28;20098;-78
2023/07/10 11:53:34;;;;;;;8.32;2.45;;;30.10;65.90;;;;;;4965398;28;20380;-78
2023/07/10 11:56:03;;;;;;;6.45;2.08;;;30.70;63.90;;;;;;4963421;28;20030;-78
2023/07/10 11:58:33;;;;;;;19.58;6.78;;;30.50;64.20;;;;;;4963499;28;20030;-79
2023/07/10 12:01:21;;;;;;;20.75;8.77;;;30.10;62.60;;;;;;4961321;28;20058;-81
2023/07/10 12:03:48;;;;;;;6.60;2.38;;;30.10;63.90;;;;;;4963014;28;20104;-78
2023/07/10 12:06:16;;;;;;;32.13;12.70;;;30.20;63.40;;;;;;4961701;28;20042;-78
2023/07/10 12:08:44;;;;;;;5.25;2.20;;;30.00;64.20;;;;;;4959296;28;20086;-79
2023/07/10 12:11:29;;;;;;;5.22;2.30;;;30.50;67.30;;;;;;4962303;28;20034;-86
2023/07/10 12:14:01;;;;;;;3.25;2.50;;;30.70;65.00;;;;;;4964278;28;20033;-80
2023/07/10 12:16:29;;;;;;;7.03;2.47;;;30.80;62.30;;;;;;4962353;28;20141;-79
2023/07/10 12:19:11;;;;;;;6.03;2.05;;;30.70;63.20;;;;;;4962983;28;20042;-78
2023/07/10 12:21:36;;;;;;;5.32;2.75;;;31.00;62.90;;;;;;4959875;28;20469;-79
2023/07/10 12:24:05;;;;;;;5.25;2.50;;;30.60;61.20;;;;;;4951870;28;20254;-81
2023/07/10 12:26:31;;;;;;;9.30;3.92;;;30.60;62.10;;;;;;4963146;28;20102;-86
2023/07/10 12:28:58;;;;;;;9.05;4.45;;;30.00;61.90;;;;;;4960428;28;20137;-80
2023/07/10 12:31:24;;;;;;;7.78;2.50;;;30.20;66.40;;;;;;4954616;28;20031;-79
2023/07/10 12:33:51;;;;;;;6.75;2.28;;;30.60;64.60;;;;;;4960032;28;20560;-82
2023/07/10 12:36:27;;;;;;;4.57;2.10;;;30.50;64.10;;;;;;4961168;28;20049;-79
2023/07/10 12:39:01;;;;;;;8.45;2.20;;;30.70;64.30;;;;;;4959205;28;20495;-82
2023/07/10 12:41:37;;;;;;;4.07;2.13;;;31.10;61.90;;;;;;4959603;28;20027;-80
2023/07/10 12:44:06;;;;;;;4.18;2.50;;;30.70;61.20;;;;;;4959418;28;20122;-79
2023/07/10 12:46:34;;;;;;;6.93;2.45;;;30.20;63.10;;;;;;4961755;28;20027;-80
2023/07/10 12:49:12;;;;;;;5.78;2.78;;;30.10;63.40;;;;;;4956788;28;20033;-81
2023/07/10 12:51:41;;;;;;;6.72;2.40;;;29.90;63.70;;;;;;4960768;28;20109;-80